createdAt,value
2019-02-17T00:04:04.907Z,13.10
2019-02-17T00:08:24.139Z,12.80
2019-02-17T00:12:43.261Z,13.13
2019-02-17T00:17:02.193Z,12.83
2019-02-17T00:21:20.803Z,14.30
2019-02-17T00:25:39.707Z,11.93
2019-02-17T00:29:58.397Z,12.80
2019-02-17T00:34:17.337Z,12.63
2019-02-17T00:38:36.072Z,11.47
2019-02-17T00:42:54.926Z,16.00
2019-02-17T00:47:13.975Z,12.80
2019-02-17T00:51:32.666Z,14.73
2019-02-17T00:55:51.657Z,14.87
2019-02-17T01:00:10.617Z,14.40
2019-02-17T01:04:30.492Z,15.90
2019-02-17T01:08:48.836Z,14.20
2019-02-17T01:13:07.645Z,13.43
2019-02-17T01:17:26.545Z,14.87
2019-02-17T01:21:45.523Z,13.63
2019-02-17T01:26:04.173Z,14.90
2019-02-17T01:30:24.740Z,15.37
2019-02-17T01:35:02.916Z,12.90
2019-02-17T01:39:21.551Z,13.33
2019-02-17T01:43:40.605Z,12.50
2019-02-17T01:48:03.821Z,12.53
2019-02-17T01:52:22.490Z,12.70
2019-02-17T01:56:41.414Z,12.80
2019-02-17T02:01:00.290Z,17.07
2019-02-17T02:05:10.154Z,11.90
2019-02-17T02:09:19.705Z,13.20
2019-02-17T02:13:29.021Z,12.73
2019-02-17T02:17:38.582Z,13.90
2019-02-17T02:21:48.243Z,14.30
2019-02-17T02:25:57.871Z,13.37
2019-02-17T02:30:07.816Z,13.67
2019-02-17T02:34:17.243Z,13.20
2019-02-17T02:38:26.696Z,12.00
2019-02-17T02:42:36.140Z,12.00
2019-02-17T02:46:45.797Z,11.20
2019-02-17T02:50:56.200Z,13.10
2019-02-17T02:55:05.991Z,12.43
2019-02-17T02:59:15.551Z,11.93
2019-02-17T03:03:25.239Z,14.07
2019-02-17T03:07:34.645Z,13.70
2019-02-17T03:11:44.208Z,13.37
2019-02-17T03:15:53.865Z,12.40
2019-02-17T03:20:03.374Z,13.30
2019-02-17T03:24:12.814Z,12.13
2019-02-17T03:28:22.178Z,13.73
2019-02-17T03:32:31.653Z,13.93
2019-02-17T03:36:41.263Z,12.83
2019-02-17T03:40:50.528Z,15.00
2019-02-17T03:45:00.035Z,13.87
2019-02-17T03:49:09.565Z,13.87
2019-02-17T03:53:19.015Z,15.53
2019-02-17T03:57:28.694Z,14.57
2019-02-17T04:01:38.393Z,13.10
2019-02-17T04:05:48.210Z,14.50
2019-02-17T04:09:57.873Z,14.40
2019-02-17T04:14:07.379Z,15.70
2019-02-17T04:18:17.018Z,14.80
2019-02-17T04:22:26.335Z,14.87
2019-02-17T04:26:36.016Z,14.13
2019-02-17T04:30:45.335Z,14.70
2019-02-17T04:34:55.362Z,14.87
2019-02-17T04:39:05.082Z,14.00
2019-02-17T04:43:15.602Z,13.73
2019-02-17T04:47:25.000Z,13.80
2019-02-17T04:51:34.790Z,15.67
2019-02-17T04:55:44.121Z,15.70
2019-02-17T04:59:53.862Z,16.23
2019-02-17T05:04:05.346Z,13.40
2019-02-17T05:08:15.071Z,15.70
2019-02-17T05:12:24.375Z,15.23
2019-02-17T05:16:33.951Z,13.90
2019-02-17T05:20:43.487Z,15.27
2019-02-17T05:24:52.865Z,14.17
2019-02-17T05:29:02.320Z,14.03
2019-02-17T05:33:11.720Z,15.53
2019-02-17T05:37:21.078Z,14.70
2019-02-17T05:41:31.084Z,15.97
2019-02-17T05:45:45.380Z,15.53
2019-02-17T05:49:54.888Z,14.47
2019-02-17T05:54:04.586Z,15.90
2019-02-17T05:58:14.073Z,16.33
2019-02-17T06:02:23.513Z,16.67
2019-02-17T06:06:32.947Z,14.60
2019-02-17T06:10:42.526Z,15.93
2019-02-17T06:14:51.969Z,16.30
2019-02-17T06:19:01.418Z,15.83
2019-02-17T06:23:11.235Z,16.27
2019-02-17T06:27:20.720Z,14.70
2019-02-17T06:31:30.143Z,15.87
2019-02-17T06:35:39.648Z,16.57
2019-02-17T06:39:49.200Z,15.97
2019-02-17T06:43:58.602Z,15.37
2019-02-17T06:48:08.020Z,16.93
2019-02-17T06:52:17.534Z,16.03
2019-02-17T06:56:46.319Z,15.97
2019-02-17T07:00:57.433Z,16.23
2019-02-17T07:05:34.082Z,17.77
2019-02-17T07:09:43.304Z,16.13
2019-02-17T07:13:52.643Z,15.80
2019-02-17T07:18:02.022Z,16.13
2019-02-17T07:22:11.368Z,15.60
2019-02-17T07:26:20.870Z,17.13
2019-02-17T07:30:30.200Z,16.03
2019-02-17T07:34:39.535Z,16.00
2019-02-17T07:38:49.057Z,16.83
2019-02-17T07:42:58.693Z,15.77
2019-02-17T07:47:08.471Z,17.00
2019-02-17T07:51:17.940Z,16.67
2019-02-17T07:55:28.158Z,16.63
2019-02-17T07:59:37.774Z,15.83
2019-02-17T08:03:47.929Z,17.67
2019-02-17T08:07:57.272Z,16.13
2019-02-17T08:12:06.742Z,17.60
2019-02-17T08:16:16.031Z,18.70
2019-02-17T08:20:25.422Z,17.23
2019-02-17T08:24:34.959Z,17.63
2019-02-17T08:28:44.504Z,17.07
2019-02-17T08:32:54.284Z,19.13
2019-02-17T08:37:03.704Z,17.90
2019-02-17T08:41:13.032Z,18.40
2019-02-17T08:45:22.779Z,17.87
2019-02-17T08:49:32.102Z,18.73
2019-02-17T08:53:41.508Z,17.43
2019-02-17T08:57:50.746Z,19.20
2019-02-17T09:02:06.021Z,17.20
2019-02-17T09:06:11.252Z,17.20
2019-02-17T09:10:20.997Z,18.70
2019-02-17T09:14:30.456Z,18.30
2019-02-17T09:18:39.869Z,19.37
2019-02-17T09:22:49.374Z,16.90
2019-02-17T09:26:59.081Z,18.63
2019-02-17T09:31:08.210Z,18.80
2019-02-17T09:35:17.623Z,18.50
2019-02-17T09:39:26.834Z,17.83
2019-02-17T09:43:36.727Z,17.67
2019-02-17T09:47:46.034Z,16.77
2019-02-17T09:51:55.468Z,17.50
2019-02-17T09:56:04.760Z,18.70
2019-02-17T10:00:15.318Z,17.53
2019-02-17T10:04:25.162Z,16.83
2019-02-17T10:08:34.800Z,17.03
2019-02-17T10:12:44.402Z,17.80
2019-02-17T10:16:55.100Z,17.03
2019-02-17T10:21:04.448Z,18.90
2019-02-17T10:25:14.159Z,16.27
2019-02-17T10:29:23.567Z,17.27
2019-02-17T10:33:32.859Z,18.10
2019-02-17T10:37:42.147Z,18.93
2019-02-17T10:41:52.479Z,19.47
2019-02-17T10:46:01.703Z,17.13
2019-02-17T10:50:12.014Z,18.40
2019-02-17T10:54:23.006Z,18.37
2019-02-17T10:58:32.308Z,19.00
2019-02-17T11:02:46.970Z,18.73
2019-02-17T11:06:52.632Z,16.73
2019-02-17T11:11:01.960Z,17.27
2019-02-17T11:15:13.391Z,19.17
2019-02-17T11:19:22.858Z,18.43
2019-02-17T11:23:32.449Z,17.53
2019-02-17T11:27:41.697Z,18.00
2019-02-17T11:31:51.468Z,17.43
2019-02-17T11:36:00.724Z,17.83
2019-02-17T11:40:11.596Z,19.30
2019-02-17T11:44:21.038Z,18.27
2019-02-17T11:48:30.519Z,18.17
2019-02-17T11:52:39.904Z,18.33
2019-02-17T11:56:49.568Z,18.77
2019-02-17T12:00:58.954Z,18.93
2019-02-17T12:05:08.719Z,16.80
2019-02-17T12:09:18.435Z,18.87
2019-02-17T12:13:28.016Z,18.70
2019-02-17T12:17:37.250Z,18.23
2019-02-17T12:21:54.123Z,18.60
2019-02-17T12:26:07.243Z,16.77
2019-02-17T12:30:20.502Z,18.60
2019-02-17T12:34:29.735Z,16.60
2019-02-17T12:38:39.211Z,16.53
2019-02-17T12:42:50.952Z,17.90
2019-02-17T12:46:59.477Z,17.33
2019-02-17T12:51:09.080Z,18.80
2019-02-17T12:55:18.894Z,17.20
2019-02-17T12:59:28.211Z,17.87
2019-02-17T13:03:37.476Z,17.23
2019-02-17T13:07:47.072Z,16.20
2019-02-17T13:11:57.421Z,16.43
2019-02-17T13:16:07.111Z,15.00
2019-02-17T13:20:16.772Z,16.40
2019-02-17T13:24:27.602Z,16.60
2019-02-17T13:28:37.197Z,15.90
2019-02-17T13:32:47.120Z,16.00
2019-02-17T13:36:56.625Z,16.23
2019-02-17T13:41:06.533Z,16.40
2019-02-17T13:45:16.451Z,16.40
2019-02-17T13:49:26.001Z,16.33
2019-02-17T13:53:35.372Z,16.33
2019-02-17T13:57:45.300Z,15.30
2019-02-17T14:02:01.989Z,15.37
2019-02-17T14:06:11.275Z,16.23
2019-02-17T14:10:20.574Z,15.63
2019-02-17T14:14:30.276Z,16.50
2019-02-17T14:18:48.382Z,15.43
2019-02-17T14:22:57.966Z,17.87
2019-02-17T14:27:07.275Z,16.90
2019-02-17T14:31:16.720Z,16.17
2019-02-17T14:35:26.047Z,17.23
2019-02-17T14:39:35.359Z,15.57
2019-02-17T14:43:44.707Z,16.17
2019-02-17T14:47:54.401Z,16.10
2019-02-17T14:52:04.004Z,17.60
2019-02-17T14:56:13.755Z,16.37
2019-02-17T15:00:23.040Z,17.63
2019-02-17T15:04:33.039Z,16.63
2019-02-17T15:08:42.351Z,17.10
2019-02-17T15:12:51.777Z,16.97
2019-02-17T15:17:01.077Z,16.30
2019-02-17T15:21:10.450Z,17.50
2019-02-17T15:25:19.664Z,16.03
2019-02-17T15:29:31.241Z,16.20
2019-02-17T15:33:40.153Z,16.50
2019-02-17T15:37:49.733Z,17.80
2019-02-17T15:41:59.049Z,16.80
2019-02-17T15:46:08.448Z,18.00
2019-02-17T15:50:17.890Z,19.60
2019-02-17T15:54:27.273Z,18.37
2019-02-17T15:58:36.659Z,19.97
2019-02-17T16:02:46.268Z,18.23
2019-02-17T16:06:55.728Z,19.70
2019-02-17T16:11:05.268Z,17.77
2019-02-17T16:15:16.960Z,20.43
2019-02-17T16:19:27.008Z,19.20
2019-02-17T16:23:36.956Z,18.00
2019-02-17T16:27:46.756Z,20.10
2019-02-17T16:31:56.282Z,20.63
2019-02-17T16:36:05.818Z,19.10
2019-02-17T16:40:15.922Z,20.67
2019-02-17T16:44:25.553Z,19.87
2019-02-17T16:48:34.801Z,20.60
2019-02-17T16:52:44.747Z,20.87
2019-02-17T16:56:54.180Z,20.20
2019-02-17T17:01:03.747Z,20.43
2019-02-17T17:05:13.914Z,20.17
2019-02-17T17:09:23.410Z,19.30
2019-02-17T17:13:32.738Z,20.07
2019-02-17T17:17:42.616Z,20.23
2019-02-17T17:21:52.067Z,19.73
2019-02-17T17:26:02.624Z,19.70
2019-02-17T17:30:13.096Z,19.40
2019-02-17T17:34:23.059Z,18.10
2019-02-17T17:38:32.387Z,18.03
2019-02-17T17:42:42.169Z,18.87
2019-02-17T17:46:51.689Z,18.87
2019-02-17T17:51:01.166Z,17.70
2019-02-17T17:55:10.933Z,19.60
2019-02-17T17:59:20.388Z,18.13
2019-02-17T18:03:29.740Z,18.23
2019-02-17T18:07:39.327Z,18.27
2019-02-17T18:11:48.708Z,16.93
2019-02-17T18:15:58.437Z,18.67
2019-02-17T18:20:08.114Z,18.93
2019-02-17T18:24:17.564Z,19.93
2019-02-17T18:28:28.537Z,19.37
2019-02-17T18:32:38.205Z,17.00
2019-02-17T18:36:48.037Z,19.03
2019-02-17T18:40:57.569Z,19.43
2019-02-17T18:45:07.640Z,19.07
2019-02-17T18:49:17.330Z,19.47
2019-02-17T18:53:27.130Z,17.70
2019-02-17T18:57:36.541Z,17.87
2019-02-17T19:01:46.452Z,16.90
2019-02-17T19:05:56.087Z,17.70
2019-02-17T19:10:05.541Z,16.50
2019-02-17T19:14:14.863Z,16.20
2019-02-17T19:18:24.438Z,17.93
2019-02-17T19:22:34.253Z,16.90
2019-02-17T19:26:43.803Z,16.50
2019-02-17T19:30:53.079Z,18.30
2019-02-17T19:35:02.689Z,15.33
2019-02-17T19:39:12.903Z,15.10
2019-02-17T19:43:22.513Z,15.00
2019-02-17T19:47:32.002Z,14.87
2019-02-17T19:51:41.515Z,14.00
2019-02-17T19:55:51.133Z,15.40
2019-02-17T20:00:00.737Z,15.10
2019-02-17T20:04:29.574Z,14.93
2019-02-17T20:08:39.354Z,14.90
2019-02-17T20:12:49.232Z,13.30
2019-02-17T20:16:59.847Z,15.23
2019-02-17T20:21:09.220Z,15.17
2019-02-17T20:25:19.052Z,12.90
2019-02-17T20:29:28.777Z,13.73
2019-02-17T20:33:38.408Z,12.43
2019-02-17T20:37:48.073Z,11.77
2019-02-17T20:41:57.455Z,15.73
2019-02-17T20:46:06.868Z,11.90
2019-02-17T20:50:16.349Z,13.07
2019-02-17T20:54:26.986Z,13.30
2019-02-17T20:58:36.648Z,12.07
2019-02-17T21:02:46.081Z,11.90
2019-02-17T21:06:55.482Z,10.60
2019-02-17T21:11:05.101Z,11.07
2019-02-17T21:15:14.796Z,11.50
2019-02-17T21:19:24.266Z,9.97
2019-02-17T21:23:33.594Z,10.97
2019-02-17T21:27:43.328Z,12.53
2019-02-17T21:31:52.781Z,11.03
2019-02-17T21:36:02.146Z,11.00
2019-02-17T21:40:12.781Z,14.80
2019-02-17T21:44:22.254Z,11.90
2019-02-17T21:48:31.726Z,9.60
2019-02-17T21:52:42.229Z,10.73
2019-02-17T21:56:51.759Z,9.90
2019-02-17T22:01:03.181Z,9.63
2019-02-17T22:05:12.370Z,8.97
2019-02-17T22:09:21.840Z,11.93
2019-02-17T22:13:31.200Z,10.80
2019-02-17T22:17:40.894Z,9.63
2019-02-17T22:21:50.415Z,9.00
2019-02-17T22:26:00.343Z,8.77
2019-02-17T22:30:10.679Z,8.27
2019-02-17T22:34:20.587Z,9.57
2019-02-17T22:38:29.940Z,8.40
2019-02-17T22:42:39.940Z,11.57
2019-02-17T22:46:49.507Z,7.60
2019-02-17T22:50:59.570Z,10.67
2019-02-17T22:55:09.431Z,10.93
2019-02-17T22:59:19.089Z,7.77
2019-02-17T23:03:28.576Z,9.30
2019-02-17T23:07:38.503Z,9.03
2019-02-17T23:11:54.829Z,7.57
2019-02-17T23:16:04.777Z,7.50
2019-02-17T23:20:14.345Z,8.47
2019-02-17T23:24:24.283Z,8.10
2019-02-17T23:28:33.949Z,7.93
2019-02-17T23:32:43.840Z,7.37
2019-02-17T23:36:53.397Z,10.77
2019-02-17T23:41:03.359Z,8.40
2019-02-17T23:45:13.173Z,7.93
2019-02-17T23:49:23.060Z,7.87
2019-02-17T23:53:32.462Z,8.10
2019-02-17T23:57:42.035Z,8.90
